Time;durP1;ratioP1;P1;durP2;ratioP2;P2;SDS_P1;SDS_P2;PMS_P1;PMS_P2;Temp;Humidity;BMP_temperature;BMP_pressure;BME280_temperature;BME280_humidity;BME280_pressure;Samples;Min_cycle;Max_cycle;Signal;HPM_P1;HPM_P2
2024/01/07 00:01:57;;;;;;;18.10;11.45;;;1.10;99.90;;;;;;6302331;22;20346;-82
2024/01/07 00:04:23;;;;;;;18.83;11.05;;;1.10;99.90;;;;;;6303841;22;20042;-82
2024/01/07 00:06:49;;;;;;;19.52;12.57;;;1.10;99.90;;;;;;6303930;22;20065;-82
2024/01/07 00:09:16;;;;;;;18.00;11.52;;;1.10;99.90;;;;;;6301834;22;20101;-82
2024/01/07 00:11:42;;;;;;;21.20;12.35;;;1.10;99.90;;;;;;6302345;22;20019;-82
2024/01/07 00:14:07;;;;;;;19.60;11.57;;;1.10;99.90;;;;;;6301557;22;20065;-82
2024/01/07 00:16:34;;;;;;;17.80;11.68;;;1.10;99.90;;;;;;6275528;22;20094;-82
2024/01/07 00:18:59;;;;;;;19.88;12.07;;;1.10;99.90;;;;;;6301108;22;20046;-82
2024/01/07 00:21:25;;;;;;;17.77;11.80;;;1.10;99.90;;;;;;6301083;22;20027;-82
2024/01/07 00:23:51;;;;;;;19.38;11.68;;;1.10;99.90;;;;;;6301389;22;20023;-81
2024/01/07 00:26:16;;;;;;;20.77;12.02;;;1.20;99.90;;;;;;6275603;22;20076;-82
2024/01/07 00:28:43;;;;;;;18.42;11.15;;;1.10;99.90;;;;;;6301391;22;20012;-82
2024/01/07 00:31:12;;;;;;;16.80;11.48;;;1.10;99.90;;;;;;6301250;22;20022;-82
2024/01/07 00:33:38;;;;;;;18.60;10.70;;;1.20;99.90;;;;;;6300900;22;20089;-82
2024/01/07 00:36:03;;;;;;;20.33;11.05;;;1.10;99.90;;;;;;6301407;22;20064;-82
2024/01/07 00:38:29;;;;;;;16.55;10.75;;;1.20;99.90;;;;;;6301587;22;20352;-82
2024/01/07 00:40:55;;;;;;;16.23;10.65;;;1.10;99.90;;;;;;6301722;22;20051;-82
2024/01/07 00:43:20;;;;;;;14.70;10.30;;;1.10;99.90;;;;;;6300627;22;20026;-82
2024/01/07 00:45:46;;;;;;;17.42;11.18;;;1.10;99.90;;;;;;6301219;22;20023;-82
2024/01/07 00:48:12;;;;;;;20.52;11.38;;;1.20;99.90;;;;;;6300669;22;20030;-82
2024/01/07 00:50:37;;;;;;;15.60;9.57;;;1.10;99.90;;;;;;6301061;22;20023;-83
2024/01/07 00:53:03;;;;;;;14.95;9.77;;;1.10;99.90;;;;;;6300888;22;20018;-82
2024/01/07 00:55:29;;;;;;;16.40;9.63;;;1.10;99.90;;;;;;6300988;22;20027;-82
2024/01/07 00:57:55;;;;;;;15.00;9.25;;;1.10;99.90;;;;;;6300919;22;20022;-82
2024/01/07 01:00:21;;;;;;;15.43;9.98;;;1.10;99.90;;;;;;6300903;22;20026;-82
2024/01/07 01:02:46;;;;;;;15.35;9.75;;;1.10;99.90;;;;;;6300750;22;20019;-82
2024/01/07 01:05:12;;;;;;;16.33;9.38;;;1.10;99.90;;;;;;6300749;22;20015;-82
2024/01/07 01:07:38;;;;;;;13.93;9.23;;;1.10;99.90;;;;;;6300456;22;20019;-82
2024/01/07 01:10:04;;;;;;;15.65;9.80;;;1.10;99.90;;;;;;6300806;22;20103;-83
2024/01/07 01:12:30;;;;;;;13.95;9.00;;;1.00;99.90;;;;;;6300855;22;20180;-82
2024/01/07 01:14:55;;;;;;;13.25;8.82;;;1.10;99.90;;;;;;6301052;22;20026;-82
2024/01/07 01:17:21;;;;;;;14.00;9.32;;;1.10;99.90;;;;;;6300418;22;20077;-83
2024/01/07 01:19:47;;;;;;;14.27;9.98;;;1.00;99.90;;;;;;6300839;22;20097;-83
2024/01/07 01:22:12;;;;;;;13.88;9.38;;;1.00;99.90;;;;;;6300431;22;20008;-81
2024/01/07 01:24:38;;;;;;;18.00;10.52;;;0.90;99.90;;;;;;6302899;22;20061;-83
2024/01/07 01:27:04;;;;;;;15.70;10.23;;;1.00;99.90;;;;;;6302901;22;20049;-82
2024/01/07 01:29:29;;;;;;;16.05;9.73;;;1.00;99.90;;;;;;6300615;22;20356;-83
2024/01/07 01:31:56;;;;;;;15.75;9.25;;;1.00;99.90;;;;;;6300242;22;20019;-82
2024/01/07 01:34:21;;;;;;;17.83;10.02;;;1.00;99.90;;;;;;6300418;22;20094;-83
2024/01/07 01:36:47;;;;;;;15.73;9.63;;;1.00;99.90;;;;;;6300450;22;20047;-81
2024/01/07 01:39:12;;;;;;;16.45;9.77;;;1.00;99.90;;;;;;6301005;22;20019;-82
2024/01/07 01:41:39;;;;;;;15.18;9.80;;;1.00;99.90;;;;;;6300679;22;20359;-82
2024/01/07 01:44:05;;;;;;;17.05;9.30;;;1.00;99.90;;;;;;6300627;22;20026;-82
2024/01/07 01:46:31;;;;;;;17.50;9.95;;;1.00;99.90;;;;;;6300439;22;20581;-83
2024/01/07 01:48:58;;;;;;;15.55;9.85;;;1.10;99.90;;;;;;6300536;22;20023;-82
2024/01/07 01:51:24;;;;;;;15.25;10.45;;;1.10;99.90;;;;;;6300821;22;20118;-82
2024/01/07 01:53:51;;;;;;;15.73;10.45;;;1.10;99.90;;;;;;6300880;22;20324;-82
2024/01/07 01:56:20;;;;;;;17.75;11.10;;;1.10;99.90;;;;;;6302525;22;20097;-82
2024/01/07 01:58:47;;;;;;;15.77;9.93;;;1.00;99.90;;;;;;6302886;22;20023;-82
2024/01/07 02:01:13;;;;;;;15.60;10.50;;;1.00;99.90;;;;;;6300335;22;20285;-82
2024/01/07 02:03:39;;;;;;;14.80;10.40;;;1.00;99.90;;;;;;6300782;22;20396;-82
2024/01/07 02:06:05;;;;;;;14.88;9.48;;;1.00;99.90;;;;;;6300463;22;20029;-82
2024/01/07 02:08:32;;;;;;;14.85;9.65;;;1.10;99.90;;;;;;6301802;22;20084;-81
2024/01/07 02:10:57;;;;;;;15.00;9.80;;;1.10;99.90;;;;;;6300370;22;20011;-80
2024/01/07 02:13:23;;;;;;;18.17;9.45;;;1.10;99.90;;;;;;6300505;22;20026;-81
2024/01/07 02:15:49;;;;;;;17.38;9.82;;;1.10;99.90;;;;;;6302334;22;20019;-81
2024/01/07 02:18:15;;;;;;;13.55;9.07;;;1.00;99.90;;;;;;6300365;22;20090;-82
2024/01/07 02:20:40;;;;;;;15.15;9.35;;;1.10;99.90;;;;;;6302627;22;20431;-82
2024/01/07 02:23:06;;;;;;;14.63;9.38;;;1.00;99.90;;;;;;6301889;22;20336;-82
2024/01/07 02:25:38;;;;;;;15.88;9.93;;;1.00;99.90;;;;;;6302377;22;20362;-82
2024/01/07 02:28:05;;;;;;;15.90;9.65;;;1.00;99.90;;;;;;6300360;22;20022;-81
2024/01/07 02:30:30;;;;;;;17.35;9.73;;;1.00;99.90;;;;;;6301731;22;20031;-81
2024/01/07 02:33:00;;;;;;;14.65;9.13;;;0.90;99.90;;;;;;6300375;22;20019;-81
2024/01/07 02:35:26;;;;;;;14.90;9.57;;;1.00;99.90;;;;;;6301756;22;20686;-81
2024/01/07 02:37:51;;;;;;;12.13;8.88;;;1.00;99.90;;;;;;6300376;22;20026;-81
2024/01/07 02:40:17;;;;;;;15.75;9.40;;;1.00;99.90;;;;;;6299911;22;20416;-81
2024/01/07 02:42:43;;;;;;;17.98;9.57;;;1.00;99.90;;;;;;6299873;22;20505;-81
2024/01/07 02:45:09;;;;;;;12.73;9.20;;;1.10;99.90;;;;;;6299622;22;20018;-82
2024/01/07 02:47:34;;;;;;;12.13;8.80;;;1.10;99.90;;;;;;6300043;22;20042;-81
2024/01/07 02:50:00;;;;;;;13.90;9.00;;;1.10;99.90;;;;;;6302510;22;20019;-81
2024/01/07 02:52:25;;;;;;;12.80;8.93;;;1.00;99.90;;;;;;6300233;22;20015;-81
2024/01/07 02:54:51;;;;;;;12.90;8.27;;;1.00;99.90;;;;;;6300187;22;20045;-80
2024/01/07 02:57:17;;;;;;;12.85;8.25;;;1.00;99.90;;;;;;6300187;22;20042;-81
2024/01/07 02:59:42;;;;;;;13.13;8.95;;;1.00;99.90;;;;;;6300047;22;20011;-81
2024/01/07 03:02:08;;;;;;;12.32;8.85;;;1.00;99.90;;;;;;6300425;22;20128;-81
2024/01/07 03:04:34;;;;;;;13.80;8.50;;;1.00;99.90;;;;;;6302400;22;20432;-80
2024/01/07 03:06:59;;;;;;;15.35;9.60;;;1.00;99.90;;;;;;6302483;22;20474;-80
2024/01/07 03:09:25;;;;;;;13.25;9.00;;;1.00;99.90;;;;;;6301846;22;20015;-81
2024/01/07 03:11:51;;;;;;;15.18;9.25;;;1.00;99.90;;;;;;6302586;22;20090;-80
2024/01/07 03:14:20;;;;;;;14.68;8.75;;;1.00;99.90;;;;;;6300064;22;20042;-81
2024/01/07 03:16:45;;;;;;;13.98;8.55;;;1.00;99.90;;;;;;6303134;22;20050;-80
2024/01/07 03:19:11;;;;;;;12.35;8.48;;;0.90;99.90;;;;;;6302201;22;20436;-81
2024/01/07 03:21:37;;;;;;;14.88;8.70;;;1.00;99.90;;;;;;6301459;22;20094;-81
2024/01/07 03:24:02;;;;;;;10.82;8.35;;;0.90;99.90;;;;;;6299567;22;20068;-82
2024/01/07 03:26:32;;;;;;;14.45;9.02;;;1.00;99.90;;;;;;6299667;22;20087;-81
2024/01/07 03:28:59;;;;;;;13.55;8.68;;;1.00;99.90;;;;;;6301604;22;20072;-81
2024/01/07 03:31:25;;;;;;;12.80;8.90;;;1.00;99.90;;;;;;6299639;22;20124;-81
2024/01/07 03:33:51;;;;;;;12.20;9.02;;;1.00;99.90;;;;;;6301318;22;20015;-81
2024/01/07 03:36:17;;;;;;;11.77;8.55;;;1.00;99.90;;;;;;6301629;22;20023;-82
2024/01/07 03:38:43;;;;;;;17.05;8.90;;;0.90;99.90;;;;;;6301786;22;20082;-81
2024/01/07 03:41:09;;;;;;;13.93;9.20;;;0.90;99.90;;;;;;6299564;22;20015;-81
2024/01/07 03:43:34;;;;;;;13.20;8.68;;;0.80;99.90;;;;;;6301358;22;20015;-81
2024/01/07 03:46:00;;;;;;;13.63;8.35;;;0.80;99.90;;;;;;6301675;22;20068;-81
2024/01/07 03:48:26;;;;;;;12.15;8.63;;;0.80;99.90;;;;;;6301130;22;20022;-81
2024/01/07 03:50:52;;;;;;;11.05;8.05;;;0.80;99.90;;;;;;6301538;22;20018;-81
2024/01/07 03:53:18;;;;;;;13.75;8.38;;;0.80;99.90;;;;;;6301676;22;20086;-82
2024/01/07 03:55:44;;;;;;;12.57;8.70;;;0.90;99.90;;;;;;6301268;22;20019;-82
2024/01/07 03:58:10;;;;;;;14.32;8.00;;;0.90;99.90;;;;;;6299426;22;20019;-81
2024/01/07 04:00:36;;;;;;;14.52;8.30;;;0.80;99.90;;;;;;6299752;22;20403;-81
2024/01/07 04:03:02;;;;;;;11.30;8.43;;;0.90;99.90;;;;;;6299260;22;20103;-81
2024/01/07 04:05:29;;;;;;;11.45;7.55;;;0.90;99.90;;;;;;6299639;22;20019;-81
2024/01/07 04:07:55;;;;;;;15.35;9.88;;;0.80;99.90;;;;;;6301169;22;20007;-81
2024/01/07 04:10:20;;;;;;;10.68;7.25;;;0.90;99.90;;;;;;6301720;22;20102;-81
2024/01/07 04:12:46;;;;;;;12.00;8.15;;;0.80;99.90;;;;;;6299472;22;20019;-81
2024/01/07 04:15:12;;;;;;;11.15;7.72;;;0.80;99.90;;;;;;6301147;22;20506;-81
2024/01/07 04:17:38;;;;;;;13.55;8.30;;;0.70;99.90;;;;;;6299509;22;20022;-81
2024/01/07 04:20:05;;;;;;;10.90;7.75;;;0.80;99.90;;;;;;6301298;22;20047;-81
2024/01/07 04:22:31;;;;;;;13.55;7.82;;;0.80;99.90;;;;;;6300917;22;20403;-81
2024/01/07 04:24:57;;;;;;;13.07;8.48;;;0.80;99.90;;;;;;6302528;22;20019;-81
2024/01/07 04:27:24;;;;;;;13.35;8.38;;;0.80;99.90;;;;;;6303018;22;20052;-81
2024/01/07 04:29:50;;;;;;;11.48;8.10;;;0.80;99.90;;;;;;6301195;22;20488;-81
2024/01/07 04:32:16;;;;;;;13.18;7.82;;;0.80;99.90;;;;;;6301626;22;20098;-81
2024/01/07 04:34:42;;;;;;;15.80;8.35;;;0.70;99.90;;;;;;6301386;22;20015;-81
2024/01/07 04:37:07;;;;;;;14.27;9.00;;;0.80;99.90;;;;;;6301471;22;20022;-81
2024/01/07 04:39:33;;;;;;;16.95;8.75;;;0.70;99.90;;;;;;6301167;22;20037;-81
2024/01/07 04:41:58;;;;;;;11.95;8.55;;;0.70;99.90;;;;;;6300729;22;20444;-81
2024/01/07 04:44:24;;;;;;;11.43;8.63;;;0.70;99.90;;;;;;6302735;22;20011;-80
2024/01/07 04:46:50;;;;;;;12.77;9.38;;;0.60;99.90;;;;;;6301185;22;20061;-83
2024/01/07 04:49:16;;;;;;;12.02;8.30;;;0.70;99.90;;;;;;6301151;22;20015;-82
2024/01/07 04:51:41;;;;;;;12.30;8.10;;;0.70;99.90;;;;;;6301224;22;20019;-83
2024/01/07 04:54:07;;;;;;;17.25;8.55;;;0.70;99.90;;;;;;6303173;22;20345;-82
2024/01/07 04:56:33;;;;;;;13.27;8.50;;;0.60;99.90;;;;;;6302721;22;20019;-83
2024/01/07 04:58:59;;;;;;;12.18;8.18;;;0.60;99.90;;;;;;6303400;22;20323;-83
2024/01/07 05:01:24;;;;;;;12.82;8.30;;;0.60;99.90;;;;;;6303255;22;20054;-83
2024/01/07 05:03:50;;;;;;;11.50;8.15;;;0.70;99.90;;;;;;6301045;22;20094;-83
2024/01/07 05:06:16;;;;;;;11.15;7.43;;;0.60;99.90;;;;;;6301110;22;20022;-83
2024/01/07 05:08:41;;;;;;;10.57;7.78;;;0.60;99.90;;;;;;6300959;22;20098;-83
2024/01/07 05:11:07;;;;;;;11.30;7.28;;;0.60;99.90;;;;;;6300407;22;20078;-83
2024/01/07 05:13:35;;;;;;;14.35;6.78;;;0.60;99.90;;;;;;6303226;22;20068;-82
2024/01/07 05:16:00;;;;;;;11.80;6.88;;;0.50;99.90;;;;;;6302051;22;20023;-82
2024/01/07 05:18:26;;;;;;;9.45;6.15;;;0.60;99.90;;;;;;6301287;22;20479;-82
2024/01/07 05:20:52;;;;;;;9.32;6.78;;;0.60;99.90;;;;;;6301166;22;20018;-82
2024/01/07 05:23:19;;;;;;;10.38;6.90;;;0.60;99.90;;;;;;6303157;22;20086;-82
2024/01/07 05:25:45;;;;;;;10.55;6.25;;;0.60;99.90;;;;;;6303108;22;20015;-82
2024/01/07 05:28:11;;;;;;;9.57;6.20;;;0.60;99.90;;;;;;6300433;22;20065;-82
2024/01/07 05:30:38;;;;;;;8.27;5.82;;;0.50;99.90;;;;;;6302330;22;20095;-82
2024/01/07 05:33:04;;;;;;;9.70;6.47;;;0.50;99.90;;;;;;6302420;22;20517;-82
2024/01/07 05:35:30;;;;;;;9.07;6.32;;;0.50;99.90;;;;;;6300316;22;20019;-82
2024/01/07 05:37:56;;;;;;;8.15;6.10;;;0.50;99.90;;;;;;6300913;22;20069;-83
2024/01/07 05:40:22;;;;;;;8.35;6.50;;;0.60;99.90;;;;;;6302853;22;20043;-82
2024/01/07 05:42:48;;;;;;;10.60;5.75;;;0.60;99.90;;;;;;6300508;22;20023;-82
2024/01/07 05:45:13;;;;;;;9.65;6.88;;;0.60;99.90;;;;;;6300674;22;20055;-82
2024/01/07 05:47:40;;;;;;;9.68;6.25;;;0.60;99.90;;;;;;6300576;22;20020;-83
2024/01/07 05:50:07;;;;;;;10.25;6.95;;;0.70;99.90;;;;;;6300528;22;20015;-83
2024/01/07 05:52:33;;;;;;;8.40;5.78;;;0.60;99.90;;;;;;6300763;22;20049;-82
2024/01/07 05:54:58;;;;;;;7.93;5.97;;;0.70;99.90;;;;;;6300428;22;20110;-83
2024/01/07 05:57:24;;;;;;;9.10;6.38;;;0.60;99.90;;;;;;6302677;22;20015;-83
2024/01/07 05:59:50;;;;;;;9.45;4.80;;;0.60;99.90;;;;;;6300725;22;20034;-82
2024/01/07 06:02:17;;;;;;;9.38;5.50;;;0.60;99.90;;;;;;6300551;22;20034;-83
2024/01/07 06:04:43;;;;;;;8.63;5.53;;;0.50;99.90;;;;;;6300577;22;20019;-82
2024/01/07 06:07:08;;;;;;;5.30;4.25;;;0.60;99.90;;;;;;6300078;22;20019;-82
2024/01/07 06:09:34;;;;;;;6.30;4.07;;;0.50;99.90;;;;;;6300393;22;20026;-83
2024/01/07 06:12:01;;;;;;;7.55;4.03;;;0.50;99.90;;;;;;6300543;22;20079;-82
2024/01/07 06:14:26;;;;;;;8.40;3.92;;;0.60;99.90;;;;;;6300821;22;20088;-83
2024/01/07 06:16:52;;;;;;;7.30;4.10;;;0.60;99.90;;;;;;6302377;22;20090;-83
2024/01/07 06:19:19;;;;;;;8.35;4.53;;;0.60;99.90;;;;;;6302215;22;20017;-82
2024/01/07 06:21:45;;;;;;;7.07;4.45;;;0.60;99.90;;;;;;6300250;22;20015;-82
2024/01/07 06:24:11;;;;;;;5.70;4.30;;;0.50;99.90;;;;;;6302242;22;20050;-82
2024/01/07 06:26:37;;;;;;;4.95;3.85;;;0.60;99.90;;;;;;6302292;22;20023;-82
2024/01/07 06:29:02;;;;;;;6.80;3.95;;;0.60;99.90;;;;;;6302340;22;20152;-82
2024/01/07 06:31:28;;;;;;;4.80;3.50;;;0.60;99.90;;;;;;6301971;22;20040;-82
2024/01/07 06:33:57;;;;;;;5.68;3.83;;;0.60;99.90;;;;;;6300007;22;20011;-82
2024/01/07 06:36:25;;;;;;;4.43;3.25;;;0.60;99.90;;;;;;6300000;22;20036;-82
2024/01/07 06:38:51;;;;;;;3.53;3.22;;;0.60;99.90;;;;;;6300171;22;20302;-81
2024/01/07 06:41:16;;;;;;;3.70;3.22;;;0.60;99.90;;;;;;6300012;22;20053;-82
2024/01/07 06:43:42;;;;;;;5.43;3.40;;;0.70;99.90;;;;;;6300213;22;20015;-82
2024/01/07 06:46:08;;;;;;;4.80;3.00;;;0.70;99.90;;;;;;6301578;22;20215;-82
2024/01/07 06:48:33;;;;;;;4.63;3.47;;;0.60;99.90;;;;;;6302031;22;20017;-84
2024/01/07 06:50:59;;;;;;;5.68;3.35;;;0.80;99.90;;;;;;6300125;22;20015;-83
2024/01/07 06:53:25;;;;;;;5.05;3.05;;;0.60;99.90;;;;;;6300481;22;20442;-83
2024/01/07 06:55:51;;;;;;;5.20;3.55;;;0.60;99.90;;;;;;6300456;22;20050;-83
2024/01/07 06:58:16;;;;;;;5.53;3.28;;;0.70;99.90;;;;;;6301658;22;20408;-83
2024/01/07 07:00:42;;;;;;;4.68;3.08;;;0.70;99.90;;;;;;6301459;22;20455;-84
2024/01/07 07:03:08;;;;;;;3.92;2.55;;;0.60;99.90;;;;;;6302699;22;20043;-83
2024/01/07 07:05:34;;;;;;;3.13;2.45;;;0.70;99.90;;;;;;6300142;22;20110;-82
2024/01/07 07:08:01;;;;;;;4.60;3.17;;;0.60;99.90;;;;;;6300525;22;20523;-84
2024/01/07 07:10:26;;;;;;;3.35;2.58;;;0.70;99.90;;;;;;6300508;22;20451;-84
2024/01/07 07:12:52;;;;;;;5.40;3.03;;;0.60;99.90;;;;;;6302918;22;20015;-84
2024/01/07 07:15:18;;;;;;;3.53;3.00;;;0.50;99.90;;;;;;6301010;22;20202;-84
2024/01/07 07:17:44;;;;;;;6.95;3.03;;;0.60;99.90;;;;;;6300967;22;20086;-84
2024/01/07 07:20:10;;;;;;;4.30;2.92;;;0.50;99.90;;;;;;6300552;22;20276;-84
2024/01/07 07:22:36;;;;;;;3.45;3.10;;;0.60;99.90;;;;;;6300111;22;20011;-83
2024/01/07 07:25:02;;;;;;;4.13;3.03;;;0.50;99.90;;;;;;6300385;22;20049;-85
2024/01/07 07:27:28;;;;;;;3.65;2.70;;;0.50;99.90;;;;;;6300544;22;20011;-84
2024/01/07 07:29:53;;;;;;;4.93;3.47;;;0.60;99.90;;;;;;6300329;22;20088;-84
2024/01/07 07:32:19;;;;;;;5.10;3.42;;;0.50;99.90;;;;;;6300723;22;20394;-83
2024/01/07 07:34:47;;;;;;;4.25;3.13;;;0.50;99.90;;;;;;6300021;22;20019;-83
2024/01/07 07:37:13;;;;;;;3.40;3.10;;;0.60;99.90;;;;;;6300311;22;20027;-81
2024/01/07 07:39:39;;;;;;;3.38;2.97;;;0.60;99.90;;;;;;6300246;22;20030;-81
2024/01/07 07:42:04;;;;;;;5.97;3.08;;;0.60;99.90;;;;;;6302573;22;20038;-85
2024/01/07 07:44:30;;;;;;;5.10;2.70;;;0.70;99.90;;;;;;6302205;22;20022;-82
2024/01/07 07:46:56;;;;;;;3.50;2.92;;;0.70;99.90;;;;;;6304103;22;20011;-82
2024/01/07 07:49:21;;;;;;;3.88;3.03;;;0.60;99.90;;;;;;6305046;22;20414;-83
2024/01/07 07:51:47;;;;;;;4.85;3.15;;;0.60;99.90;;;;;;6306723;22;20020;-84
2024/01/07 07:54:13;;;;;;;4.60;3.03;;;0.50;99.90;;;;;;6306840;22;20047;-83
2024/01/07 07:56:39;;;;;;;3.47;3.13;;;0.50;99.90;;;;;;6281254;22;20102;-82
2024/01/07 07:59:04;;;;;;;2.95;2.40;;;0.50;99.90;;;;;;6308224;22;20094;-84
2024/01/07 08:01:30;;;;;;;5.97;2.78;;;0.50;99.90;;;;;;6311133;22;20022;-83
2024/01/07 08:03:56;;;;;;;3.47;2.80;;;0.50;99.90;;;;;;6309932;22;20072;-83
2024/01/07 08:06:21;;;;;;;3.38;2.90;;;0.50;99.90;;;;;;6309830;22;20023;-82
2024/01/07 08:08:47;;;;;;;4.85;2.65;;;0.40;99.90;;;;;;6308567;22;20050;-84
2024/01/07 08:11:13;;;;;;;5.22;2.60;;;0.50;99.90;;;;;;6308981;22;20022;-81
2024/01/07 08:13:39;;;;;;;3.45;2.50;;;0.50;99.90;;;;;;6308741;22;20025;-84
2024/01/07 08:16:05;;;;;;;3.08;2.53;;;0.50;99.90;;;;;;6283569;22;20370;-82
2024/01/07 08:18:32;;;;;;;2.58;2.30;;;0.40;99.90;;;;;;6309604;22;20015;-83
2024/01/07 08:20:58;;;;;;;2.78;1.92;;;0.40;99.90;;;;;;6308595;22;20429;-79
2024/01/07 08:23:27;;;;;;;2.67;2.20;;;0.40;99.90;;;;;;6308383;22;20018;-80
2024/01/07 08:25:52;;;;;;;7.22;3.92;;;0.40;99.90;;;;;;6282456;22;20396;-80
2024/01/07 08:28:20;;;;;;;2.65;2.30;;;0.30;99.90;;;;;;6309944;22;20022;-80
2024/01/07 08:30:46;;;;;;;4.38;2.40;;;0.30;99.90;;;;;;6307896;22;20014;-80
2024/01/07 08:33:12;;;;;;;3.47;2.72;;;0.30;99.90;;;;;;6307779;22;20023;-81
2024/01/07 08:35:38;;;;;;;3.40;2.67;;;0.30;99.90;;;;;;6310332;22;20015;-80
2024/01/07 08:38:04;;;;;;;6.85;2.28;;;0.20;99.90;;;;;;6310127;22;20410;-80
2024/01/07 08:40:31;;;;;;;3.30;2.60;;;0.20;99.90;;;;;;6310398;22;20039;-79
2024/01/07 08:42:56;;;;;;;3.33;2.55;;;0.30;99.90;;;;;;6308243;22;20357;-79
2024/01/07 08:45:22;;;;;;;3.65;2.78;;;0.30;99.90;;;;;;6310260;22;20470;-81
2024/01/07 08:47:48;;;;;;;4.22;2.30;;;0.30;99.90;;;;;;6310110;22;20019;-80
2024/01/07 08:50:14;;;;;;;3.25;2.67;;;0.40;99.90;;;;;;6308418;22;20015;-80
2024/01/07 08:52:39;;;;;;;4.40;2.55;;;0.30;99.90;;;;;;6301868;22;20027;-82
2024/01/07 08:55:07;;;;;;;2.38;2.13;;;0.40;99.90;;;;;;6303484;22;20019;-78
2024/01/07 08:57:33;;;;;;;3.05;2.72;;;0.40;99.90;;;;;;6303470;22;20011;-78
2024/01/07 08:59:59;;;;;;;2.80;2.40;;;0.30;99.90;;;;;;6303171;22;20054;-79
2024/01/07 09:02:25;;;;;;;2.38;2.17;;;0.30;99.90;;;;;;6300950;22;20099;-79
2024/01/07 09:04:51;;;;;;;4.93;2.63;;;0.30;99.90;;;;;;6301505;22;20026;-81
2024/01/07 09:07:19;;;;;;;3.85;2.72;;;0.30;99.90;;;;;;6301257;22;20015;-80
2024/01/07 09:09:44;;;;;;;8.50;2.80;;;0.30;99.90;;;;;;6301541;22;20011;-81
2024/01/07 09:12:10;;;;;;;4.45;2.88;;;0.30;99.90;;;;;;6301444;22;20061;-81
2024/01/07 09:14:38;;;;;;;5.10;2.67;;;0.40;99.90;;;;;;6301468;22;20076;-78
2024/01/07 09:17:04;;;;;;;3.63;2.58;;;0.40;99.90;;;;;;6301405;22;20340;-82
2024/01/07 09:19:29;;;;;;;5.35;2.83;;;0.30;99.90;;;;;;6301637;22;20072;-83
2024/01/07 09:21:55;;;;;;;4.85;2.35;;;0.30;99.90;;;;;;6301315;22;20046;-87
2024/01/07 09:24:21;;;;;;;3.63;2.67;;;0.50;99.90;;;;;;6301969;22;20015;-85
2024/01/07 09:26:46;;;;;;;5.43;2.90;;;0.50;99.90;;;;;;6301427;22;20435;-85
2024/01/07 09:29:13;;;;;;;2.63;2.42;;;0.60;99.90;;;;;;6301308;22;20023;-79
2024/01/07 09:31:39;;;;;;;4.13;3.05;;;0.60;99.90;;;;;;6300866;22;20041;-81
2024/01/07 09:34:06;;;;;;;3.00;2.65;;;0.50;99.90;;;;;;6301318;22;20328;-79
2024/01/07 09:36:32;;;;;;;3.33;3.00;;;0.60;99.90;;;;;;6301115;22;20076;-79
2024/01/07 09:38:58;;;;;;;2.90;2.17;;;0.70;99.90;;;;;;6302969;22;20019;-79
2024/01/07 09:41:24;;;;;;;3.38;2.55;;;0.60;99.90;;;;;;6301515;22;20011;-79
2024/01/07 09:43:51;;;;;;;3.28;2.67;;;0.60;99.90;;;;;;6301124;22;20019;-79
2024/01/07 09:46:17;;;;;;;5.35;3.03;;;0.60;99.90;;;;;;6301213;22;20015;-79
2024/01/07 09:48:43;;;;;;;3.17;2.50;;;0.70;99.90;;;;;;6301480;22;20466;-83
2024/01/07 09:51:11;;;;;;;6.43;2.65;;;0.70;99.90;;;;;;6301169;22;20057;-78
2024/01/07 09:53:40;;;;;;;3.50;2.40;;;0.70;99.90;;;;;;6300822;22;20051;-76
2024/01/07 09:56:25;;;;;;;3.17;2.30;;;0.80;99.90;;;;;;6303027;22;20047;-76
2024/01/07 09:58:51;;;;;;;3.78;2.05;;;0.80;99.90;;;;;;6302923;22;20014;-75
2024/01/07 10:01:20;;;;;;;2.97;2.63;;;0.80;99.90;;;;;;6302750;22;20102;-76
2024/01/07 10:03:46;;;;;;;3.03;2.00;;;0.80;99.90;;;;;;6301077;22;20046;-76
2024/01/07 10:06:12;;;;;;;3.00;2.20;;;0.90;99.90;;;;;;6303021;22;20016;-76
2024/01/07 10:08:38;;;;;;;3.20;2.40;;;0.90;99.90;;;;;;6300884;22;20027;-76
2024/01/07 10:11:04;;;;;;;2.85;2.38;;;0.90;99.90;;;;;;6275336;22;20022;-77
2024/01/07 10:13:31;;;;;;;3.17;2.53;;;1.00;99.90;;;;;;6275288;22;20019;-77
2024/01/07 10:15:56;;;;;;;3.05;2.25;;;0.90;99.90;;;;;;6302333;22;20031;-77
2024/01/07 10:18:22;;;;;;;5.75;2.53;;;0.90;99.90;;;;;;6301774;22;20011;-77
2024/01/07 10:20:48;;;;;;;2.35;2.10;;;1.10;99.90;;;;;;6301029;22;20031;-80
2024/01/07 10:23:19;;;;;;;4.03;2.08;;;1.00;99.90;;;;;;6274561;22;20023;-80
2024/01/07 10:25:45;;;;;;;2.47;2.00;;;1.00;99.90;;;;;;6300961;22;20011;-80
2024/01/07 10:28:11;;;;;;;2.30;2.05;;;0.90;99.90;;;;;;6300407;22;20022;-80
2024/01/07 10:30:40;;;;;;;5.53;2.47;;;0.90;99.90;;;;;;6300872;22;20015;-80
2024/01/07 10:33:08;;;;;;;2.55;2.20;;;0.90;99.90;;;;;;6300716;22;20030;-79
2024/01/07 10:35:34;;;;;;;4.00;1.90;;;0.90;99.90;;;;;;6302800;22;20077;-77
2024/01/07 10:38:03;;;;;;;2.10;1.90;;;1.00;99.90;;;;;;6302727;22;20350;-77
2024/01/07 10:40:32;;;;;;;2.10;1.90;;;1.00;99.90;;;;;;6300557;22;20046;-77
2024/01/07 10:42:58;;;;;;;2.10;1.90;;;0.90;99.90;;;;;;6300568;22;20068;-77
2024/01/07 10:45:24;;;;;;;1.85;1.65;;;1.00;99.90;;;;;;6302417;22;20133;-76
2024/01/07 10:47:54;;;;;;;2.00;1.50;;;1.10;99.90;;;;;;6301991;22;20066;-76
2024/01/07 10:50:21;;;;;;;2.35;1.83;;;1.00;99.90;;;;;;6300832;22;20485;-76
2024/01/07 10:52:51;;;;;;;2.95;2.00;;;1.00;99.90;;;;;;6300452;22;20019;-76
2024/01/07 10:55:18;;;;;;;2.60;2.17;;;1.00;99.90;;;;;;6300008;22;20177;-75
2024/01/07 10:57:47;;;;;;;5.95;2.08;;;1.00;99.90;;;;;;6300159;22;20014;-76
2024/01/07 11:00:19;;;;;;;3.30;2.53;;;1.10;99.90;;;;;;6302194;22;20019;-77
2024/01/07 11:03:12;;;;;;;5.47;2.42;;;1.10;99.90;;;;;;6300407;22;20015;-78
2024/01/07 11:05:52;;;;;;;2.10;1.90;;;1.10;99.90;;;;;;6302334;22;20057;-75
2024/01/07 11:08:40;;;;;;;4.03;2.33;;;1.20;99.90;;;;;;6300217;22;20339;-76
2024/01/07 11:11:18;;;;;;;3.85;2.20;;;1.20;99.90;;;;;;6274739;22;20038;-76
2024/01/07 11:13:44;;;;;;;3.15;2.20;;;1.20;99.90;;;;;;6300493;22;20011;-75
2024/01/07 11:16:14;;;;;;;3.28;2.25;;;1.10;99.90;;;;;;6302391;22;20019;-73
2024/01/07 11:18:50;;;;;;;3.08;2.25;;;1.20;99.90;;;;;;6300235;22;20463;-74
2024/01/07 11:21:24;;;;;;;2.28;2.08;;;1.20;99.90;;;;;;6300234;22;20016;-74
2024/01/07 11:23:52;;;;;;;2.58;2.22;;;1.20;99.90;;;;;;6300241;22;20019;-75
2024/01/07 11:26:17;;;;;;;3.38;1.95;;;1.10;99.90;;;;;;6300181;22;20038;-73
2024/01/07 11:28:49;;;;;;;2.30;2.10;;;1.20;99.90;;;;;;6302515;22;20300;-76
2024/01/07 11:31:20;;;;;;;3.37;2.20;;;1.20;99.90;;;;;;6300787;22;20076;-73
2024/01/07 11:33:47;;;;;;;3.13;2.10;;;1.30;99.90;;;;;;6300985;22;20253;-74
2024/01/07 11:36:15;;;;;;;2.50;1.80;;;1.30;99.90;;;;;;6302418;22;20089;-71
2024/01/07 11:38:50;;;;;;;3.85;1.60;;;2.30;99.90;;;;;;6304601;22;20011;-74
2024/01/07 11:41:17;;;;;;;3.03;2.15;;;1.80;99.90;;;;;;6302133;22;20039;-73
2024/01/07 11:43:58;;;;;;;2.78;2.05;;;1.60;99.90;;;;;;6302537;22;20045;-74
2024/01/07 11:46:25;;;;;;;4.95;2.60;;;1.50;99.90;;;;;;6304295;22;20022;-73
2024/01/07 11:48:53;;;;;;;2.58;1.98;;;1.40;99.90;;;;;;6302762;22;20019;-73
2024/01/07 11:51:19;;;;;;;3.30;2.42;;;1.40;99.90;;;;;;6302828;22;20042;-73
2024/01/07 11:53:48;;;;;;;2.05;1.95;;;1.40;99.90;;;;;;6304596;22;20313;-73
2024/01/07 11:56:14;;;;;;;3.47;1.90;;;1.40;99.90;;;;;;6302498;22;20463;-74
2024/01/07 11:58:41;;;;;;;4.45;2.55;;;1.40;99.90;;;;;;6302795;22;20019;-74
2024/01/07 12:01:07;;;;;;;3.90;2.15;;;1.40;99.90;;;;;;6302906;22;20011;-73
2024/01/07 12:03:33;;;;;;;3.40;2.38;;;1.40;99.90;;;;;;6302609;22;20090;-73
2024/01/07 12:05:59;;;;;;;3.25;2.15;;;1.40;99.90;;;;;;6302451;22;20397;-72
2024/01/07 12:08:25;;;;;;;2.42;2.03;;;1.40;99.90;;;;;;6304083;22;20019;-73
2024/01/07 12:10:51;;;;;;;2.78;2.20;;;1.40;99.90;;;;;;6304365;22;20019;-73
2024/01/07 12:13:18;;;;;;;2.63;2.35;;;1.40;99.90;;;;;;6304280;22;20026;-73
2024/01/07 12:15:45;;;;;;;2.22;2.00;;;1.50;99.90;;;;;;6304632;22;20310;-73
2024/01/07 12:18:11;;;;;;;4.65;2.33;;;1.50;99.90;;;;;;6302580;22;20019;-73
2024/01/07 12:20:37;;;;;;;2.53;2.33;;;1.50;99.90;;;;;;6302445;22;20488;-73
2024/01/07 12:23:09;;;;;;;3.35;2.38;;;1.50;99.90;;;;;;6302390;22;20011;-74
2024/01/07 12:25:35;;;;;;;7.40;2.53;;;1.40;99.90;;;;;;6302653;22;20030;-73
2024/01/07 12:28:02;;;;;;;3.25;1.95;;;1.50;99.90;;;;;;6304693;22;20015;-73
2024/01/07 12:30:27;;;;;;;5.13;2.63;;;1.50;99.90;;;;;;6302396;22;20023;-73
2024/01/07 12:32:54;;;;;;;3.45;2.63;;;1.50;99.90;;;;;;6302178;22;20090;-73
2024/01/07 12:35:20;;;;;;;3.90;2.53;;;1.50;99.90;;;;;;6302098;22;20023;-73
2024/01/07 12:37:48;;;;;;;6.03;2.50;;;1.60;99.90;;;;;;6302285;22;20016;-73
2024/01/07 12:40:13;;;;;;;3.03;2.42;;;1.60;99.90;;;;;;6304314;22;20007;-73
2024/01/07 12:42:44;;;;;;;4.47;2.58;;;1.50;99.90;;;;;;6302422;22;20015;-73
2024/01/07 12:45:14;;;;;;;3.92;2.17;;;1.60;99.90;;;;;;6301986;22;20023;-75
2024/01/07 12:47:41;;;;;;;2.58;2.28;;;1.50;99.90;;;;;;6302164;22;20011;-72
2024/01/07 12:50:09;;;;;;;3.80;2.55;;;1.70;99.90;;;;;;6304288;22;20007;-72